Time;durP1;ratioP1;P1;durP2;ratioP2;P2;SDS_P1;SDS_P2;PMS_P1;PMS_P2;Temp;Humidity;BMP_temperature;BMP_pressure;BME280_temperature;BME280_humidity;BME280_pressure;Samples;Min_cycle;Max_cycle;Signal;HPM_P1;HPM_P2
2022/07/27 00:00:54;;;;;;;37.28;24.67;;;;;;;;;;4952666;29;20062;-75
2022/07/27 00:03:19;;;;;;;42.03;26.20;;;;;;;;;;4952761;29;20042;-75
2022/07/27 00:05:45;;;;;;;40.17;24.50;;;;;;;;;;4952299;29;20019;-75
2022/07/27 00:08:10;;;;;;;45.80;25.55;;;;;;;;;;4952184;29;20054;-75
2022/07/27 00:10:36;;;;;;;44.38;23.80;;;;;;;;;;4952293;29;20027;-75
2022/07/27 00:13:03;;;;;;;39.42;22.02;;;;;;;;;;4966695;28;20038;-75
2022/07/27 00:15:29;;;;;;;37.58;23.23;;;;;;;;;;4952323;29;20086;-75
2022/07/27 00:17:59;;;;;;;39.08;21.33;;;;;;;;;;4951142;29;20411;-74
2022/07/27 00:20:28;;;;;;;38.45;22.50;;;;;;;;;;4950797;29;20027;-74
2022/07/27 00:22:54;;;;;;;32.10;20.58;;;;;;;;;;4948362;28;20047;-74
2022/07/27 00:25:20;;;;;;;33.70;21.42;;;;;;;;;;4933188;29;20027;-73
2022/07/27 00:27:45;;;;;;;29.35;18.75;;;;;;;;;;4934210;29;20028;-74
2022/07/27 00:30:11;;;;;;;29.25;19.45;;;;;;;;;;4938026;29;20035;-73
2022/07/27 00:32:36;;;;;;;31.65;19.10;;;;;;;;;;4936862;29;20435;-75
2022/07/27 00:35:02;;;;;;;36.67;19.67;;;;;;;;;;4933612;29;20430;-75
2022/07/27 00:37:28;;;;;;;32.90;19.08;;;;;;;;;;4931614;29;20027;-74
2022/07/27 00:39:55;;;;;;;30.90;18.05;;;;;;;;;;4931141;29;20036;-74
2022/07/27 00:42:26;;;;;;;33.08;18.45;;;;;;;;;;4915770;29;20036;-75
2022/07/27 00:44:55;;;;;;;33.00;17.45;;;;;;;;;;4933011;29;20111;-73
2022/07/27 00:47:21;;;;;;;36.78;18.70;;;;;;;;;;4932347;29;20027;-75
2022/07/27 00:49:47;;;;;;;26.35;15.70;;;;;;;;;;4930667;29;20440;-74
2022/07/27 00:52:14;;;;;;;26.38;12.38;;;;;;;;;;4947150;29;20032;-74
2022/07/27 00:54:41;;;;;;;19.73;10.95;;;;;;;;;;4932443;29;20032;-75
2022/07/27 00:57:09;;;;;;;16.92;9.77;;;;;;;;;;4930703;29;20062;-75
2022/07/27 00:59:35;;;;;;;14.93;9.10;;;;;;;;;;4932168;29;20118;-74
2022/07/27 01:02:01;;;;;;;16.17;9.27;;;;;;;;;;4932276;29;20102;-74
2022/07/27 01:04:27;;;;;;;14.02;8.68;;;;;;;;;;4936135;29;20038;-75
2022/07/27 01:06:52;;;;;;;13.73;8.93;;;;;;;;;;4934868;29;20087;-75
2022/07/27 01:12:05;;;;;;;18.58;9.18;;;;;;;;;;4937385;29;20507;-76
2022/07/27 01:14:31;;;;;;;20.42;10.52;;;;;;;;;;4938968;29;20035;-75
2022/07/27 01:16:56;;;;;;;26.63;13.07;;;;;;;;;;4951600;29;20046;-77
2022/07/27 01:19:22;;;;;;;25.55;13.18;;;;;;;;;;4934309;29;20059;-76
2022/07/27 01:21:47;;;;;;;22.15;12.68;;;;;;;;;;4935447;29;20047;-77
2022/07/27 01:24:13;;;;;;;31.83;15.60;;;;;;;;;;4947944;29;20389;-77
2022/07/27 01:26:38;;;;;;;30.55;16.55;;;;;;;;;;4969607;28;20059;-77
2022/07/27 01:29:04;;;;;;;33.65;16.83;;;;;;;;;;4955384;29;20031;-76
2022/07/27 01:31:30;;;;;;;38.60;20.60;;;;;;;;;;4953657;29;20487;-76
2022/07/27 01:33:56;;;;;;;31.75;18.15;;;;;;;;;;4953359;29;20135;-76
2022/07/27 01:36:22;;;;;;;29.05;17.20;;;;;;;;;;4969511;28;20035;-76
2022/07/27 01:38:49;;;;;;;29.05;17.55;;;;;;;;;;4954401;29;20079;-76
2022/07/27 01:41:14;;;;;;;31.85;19.63;;;;;;;;;;4953101;29;20035;-76
2022/07/27 01:43:40;;;;;;;29.63;18.25;;;;;;;;;;4954099;29;20110;-76
2022/07/27 01:46:05;;;;;;;40.53;20.83;;;;;;;;;;4953072;29;20440;-76
2022/07/27 01:48:31;;;;;;;31.40;19.02;;;;;;;;;;4953153;29;20023;-76
2022/07/27 01:50:57;;;;;;;37.15;21.70;;;;;;;;;;4953451;29;20543;-76
2022/07/27 01:53:23;;;;;;;42.17;25.17;;;;;;;;;;4954559;29;20027;-77
2022/07/27 01:55:50;;;;;;;51.53;30.33;;;;;;;;;;4954643;29;20063;-76
2022/07/27 01:58:16;;;;;;;58.03;30.88;;;;;;;;;;4954186;29;20034;-74
2022/07/27 02:00:42;;;;;;;65.43;33.63;;;;;;;;;;4952750;29;20019;-74
2022/07/27 02:03:09;;;;;;;63.00;32.47;;;;;;;;;;4952741;29;20392;-74
2022/07/27 02:05:36;;;;;;;54.58;29.17;;;;;;;;;;4953970;29;20455;-74
2022/07/27 02:08:03;;;;;;;52.65;28.35;;;;;;;;;;4952428;29;20492;-73
2022/07/27 02:10:29;;;;;;;43.75;23.90;;;;;;;;;;4954174;29;20054;-75
2022/07/27 02:12:54;;;;;;;39.65;22.65;;;;;;;;;;4952413;29;20034;-74
2022/07/27 02:15:23;;;;;;;39.13;21.40;;;;;;;;;;4968335;28;20043;-74
2022/07/27 02:17:49;;;;;;;34.60;20.60;;;;;;;;;;4968499;28;20019;-75
2022/07/27 02:20:17;;;;;;;30.77;19.08;;;;;;;;;;4954037;29;20039;-74
2022/07/27 02:22:44;;;;;;;28.15;15.00;;;;;;;;;;4951675;28;20027;-75
2022/07/27 02:25:11;;;;;;;23.33;14.57;;;;;;;;;;4933420;29;20115;-75
2022/07/27 02:27:37;;;;;;;23.58;12.60;;;;;;;;;;4933053;29;20028;-75
2022/07/27 02:30:04;;;;;;;21.75;11.65;;;;;;;;;;4933137;29;20028;-74
2022/07/27 02:32:30;;;;;;;21.85;11.07;;;;;;;;;;4933126;29;20477;-74
2022/07/27 02:34:57;;;;;;;17.88;10.27;;;;;;;;;;4934094;29;20032;-74
2022/07/27 02:37:23;;;;;;;15.90;9.82;;;;;;;;;;4934538;29;20035;-74
2022/07/27 02:39:49;;;;;;;15.35;9.68;;;;;;;;;;4932786;29;20027;-74
2022/07/27 02:42:15;;;;;;;22.40;8.43;;;;;;;;;;4934452;29;20121;-74
2022/07/27 02:44:40;;;;;;;16.05;8.43;;;;;;;;;;4932661;29;20070;-73
2022/07/27 02:47:06;;;;;;;15.80;8.60;;;;;;;;;;4933000;29;20358;-74
2022/07/27 02:49:31;;;;;;;13.43;7.78;;;;;;;;;;4933280;29;20122;-74
2022/07/27 02:51:57;;;;;;;15.93;7.30;;;;;;;;;;4932683;29;20122;-74
2022/07/27 02:54:24;;;;;;;11.10;6.65;;;;;;;;;;4934387;29;20040;-75
2022/07/27 02:56:54;;;;;;;12.57;6.22;;;;;;;;;;4932498;29;20091;-75
2022/07/27 02:59:20;;;;;;;11.32;5.78;;;;;;;;;;4933820;28;20433;-73
2022/07/27 03:01:47;;;;;;;7.22;5.32;;;;;;;;;;4932988;29;20036;-75
2022/07/27 03:04:13;;;;;;;9.15;5.78;;;;;;;;;;4932647;29;20039;-73
2022/07/27 03:06:39;;;;;;;9.40;5.63;;;;;;;;;;4933940;28;20425;-75
2022/07/27 03:09:05;;;;;;;16.48;5.53;;;;;;;;;;4932890;29;20086;-74
2022/07/27 03:11:30;;;;;;;14.50;5.88;;;;;;;;;;4934086;29;20540;-73
2022/07/27 03:13:56;;;;;;;11.43;5.43;;;;;;;;;;4932410;29;20031;-73
2022/07/27 03:16:21;;;;;;;11.95;4.93;;;;;;;;;;4932487;29;20035;-74
2022/07/27 03:18:47;;;;;;;10.85;4.82;;;;;;;;;;4933383;28;20024;-74
2022/07/27 03:21:13;;;;;;;8.27;4.55;;;;;;;;;;4933907;29;20039;-74
2022/07/27 03:23:38;;;;;;;9.10;4.53;;;;;;;;;;4942347;29;20055;-75
2022/07/27 03:26:04;;;;;;;7.70;4.60;;;;;;;;;;4952495;28;20081;-74
2022/07/27 03:28:31;;;;;;;9.73;5.00;;;;;;;;;;4951717;28;20035;-75
2022/07/27 03:30:58;;;;;;;7.45;4.30;;;;;;;;;;4951798;28;20059;-74
2022/07/27 03:33:23;;;;;;;11.25;4.28;;;;;;;;;;4967632;28;20479;-74
2022/07/27 03:35:49;;;;;;;9.32;4.28;;;;;;;;;;4950887;28;20023;-73
2022/07/27 03:38:14;;;;;;;8.52;4.00;;;;;;;;;;4950955;29;20443;-75
2022/07/27 03:40:40;;;;;;;9.63;4.57;;;;;;;;;;4951185;28;20035;-76
2022/07/27 03:43:06;;;;;;;7.88;4.38;;;;;;;;;;4951282;29;20538;-74
2022/07/27 03:45:31;;;;;;;10.73;4.88;;;;;;;;;;4952906;28;20433;-75
2022/07/27 03:47:57;;;;;;;8.80;4.13;;;;;;;;;;4957780;29;20031;-73
2022/07/27 03:50:24;;;;;;;8.80;4.57;;;;;;;;;;4960240;28;20030;-74
2022/07/27 03:52:50;;;;;;;5.30;4.15;;;;;;;;;;4957722;29;20101;-74
2022/07/27 03:55:16;;;;;;;6.85;4.47;;;;;;;;;;4956818;29;20016;-74
2022/07/27 03:57:42;;;;;;;7.32;4.45;;;;;;;;;;4957373;28;20217;-73
2022/07/27 04:00:11;;;;;;;8.02;4.25;;;;;;;;;;4958850;28;20031;-75
2022/07/27 04:02:36;;;;;;;11.52;4.30;;;;;;;;;;4954392;28;20026;-75
2022/07/27 04:05:02;;;;;;;5.57;3.83;;;;;;;;;;4952117;29;20031;-75
2022/07/27 04:07:28;;;;;;;7.03;4.60;;;;;;;;;;4951962;29;20051;-74
2022/07/27 04:09:53;;;;;;;9.90;4.30;;;;;;;;;;4950489;29;20117;-74
2022/07/27 04:12:19;;;;;;;12.82;4.68;;;;;;;;;;4950792;29;20495;-74
2022/07/27 04:14:44;;;;;;;8.32;4.43;;;;;;;;;;4951659;28;20455;-74
2022/07/27 04:17:10;;;;;;;11.20;4.65;;;;;;;;;;4950626;29;20031;-74
2022/07/27 04:19:35;;;;;;;10.23;4.55;;;;;;;;;;4950343;28;20232;-74
2022/07/27 04:22:00;;;;;;;8.90;4.93;;;;;;;;;;4950127;28;20034;-74
2022/07/27 04:24:26;;;;;;;11.93;4.72;;;;;;;;;;4951046;28;20031;-75
2022/07/27 04:26:51;;;;;;;8.07;3.80;;;;;;;;;;4931044;29;20083;-74
2022/07/27 04:29:17;;;;;;;6.60;4.18;;;;;;;;;;4931332;29;20461;-74
2022/07/27 04:31:42;;;;;;;7.45;4.22;;;;;;;;;;4930878;29;20074;-76
2022/07/27 04:34:08;;;;;;;6.35;3.75;;;;;;;;;;4930801;29;20040;-74
2022/07/27 04:36:36;;;;;;;8.75;4.25;;;;;;;;;;4930949;29;20059;-74
2022/07/27 04:39:01;;;;;;;13.05;4.45;;;;;;;;;;4930657;29;20027;-74
2022/07/27 04:41:27;;;;;;;6.85;4.10;;;;;;;;;;4932315;29;20517;-73
2022/07/27 04:43:52;;;;;;;9.90;4.63;;;;;;;;;;4930839;29;20040;-74
2022/07/27 04:46:18;;;;;;;10.35;4.45;;;;;;;;;;4931118;29;20042;-74
2022/07/27 04:48:43;;;;;;;8.57;4.80;;;;;;;;;;4914661;29;20198;-74
2022/07/27 04:51:13;;;;;;;6.10;4.25;;;;;;;;;;4930793;29;20028;-74
2022/07/27 04:53:39;;;;;;;9.43;4.72;;;;;;;;;;4946869;29;20028;-74
2022/07/27 04:56:05;;;;;;;7.70;4.80;;;;;;;;;;4930591;29;20038;-74
2022/07/27 04:58:31;;;;;;;8.65;4.85;;;;;;;;;;4930811;29;20024;-76
2022/07/27 05:00:56;;;;;;;8.93;4.72;;;;;;;;;;4930706;29;20038;-77
2022/07/27 05:03:22;;;;;;;7.10;4.40;;;;;;;;;;4932448;29;20059;-76
2022/07/27 05:05:47;;;;;;;10.95;5.40;;;;;;;;;;4931866;29;20027;-77
2022/07/27 05:08:13;;;;;;;9.00;4.95;;;;;;;;;;4930705;29;20043;-76
2022/07/27 05:10:38;;;;;;;16.60;6.75;;;;;;;;;;4930495;29;20031;-77
2022/07/27 05:13:05;;;;;;;15.98;6.47;;;;;;;;;;4931931;29;20035;-77
2022/07/27 05:15:30;;;;;;;11.48;7.13;;;;;;;;;;4946790;28;20484;-76
2022/07/27 05:17:56;;;;;;;13.88;7.70;;;;;;;;;;4930315;29;20042;-77
2022/07/27 05:20:21;;;;;;;12.95;6.75;;;;;;;;;;4939531;28;20031;-77
2022/07/27 05:22:47;;;;;;;12.52;6.63;;;;;;;;;;4947181;28;20066;-76
2022/07/27 05:25:12;;;;;;;13.65;6.82;;;;;;;;;;4930688;29;20031;-76
2022/07/27 05:27:38;;;;;;;10.90;6.75;;;;;;;;;;4957372;28;20218;-74
2022/07/27 05:30:05;;;;;;;16.05;6.85;;;;;;;;;;4950002;29;20031;-76
2022/07/27 05:32:30;;;;;;;13.75;6.57;;;;;;;;;;4965711;28;20071;-75
2022/07/27 05:34:56;;;;;;;17.30;7.28;;;;;;;;;;4965583;28;20421;-76
2022/07/27 05:37:21;;;;;;;9.40;7.32;;;;;;;;;;4951404;29;20042;-74
2022/07/27 05:39:47;;;;;;;10.07;6.63;;;;;;;;;;4964921;28;20031;-75
2022/07/27 05:42:12;;;;;;;16.92;8.57;;;;;;;;;;4965709;28;20480;-76
2022/07/27 05:44:39;;;;;;;10.98;8.63;;;;;;;;;;4952921;28;20022;-74
2022/07/27 05:47:05;;;;;;;13.32;7.57;;;;;;;;;;4954106;28;20312;-75
2022/07/27 05:49:32;;;;;;;15.15;8.13;;;;;;;;;;4963408;28;20053;-75
2022/07/27 05:51:57;;;;;;;23.33;9.63;;;;;;;;;;4952469;28;20031;-75
2022/07/27 05:54:26;;;;;;;29.38;12.50;;;;;;;;;;4968731;28;20030;-76
2022/07/27 05:56:52;;;;;;;20.05;10.02;;;;;;;;;;4971735;28;20121;-75
2022/07/27 05:59:20;;;;;;;15.35;10.40;;;;;;;;;;4959470;28;20131;-74
2022/07/27 06:01:45;;;;;;;21.17;12.20;;;;;;;;;;4955387;28;20023;-77
2022/07/27 06:04:11;;;;;;;24.98;15.05;;;;;;;;;;4952777;29;20031;-77
2022/07/27 06:09:21;;;;;;;25.92;16.27;;;;;;;;;;4945959;28;20083;-75
2022/07/27 06:11:46;;;;;;;30.60;17.27;;;;;;;;;;4947734;28;20042;-75
2022/07/27 06:14:12;;;;;;;31.55;18.52;;;;;;;;;;4948848;28;20074;-75
2022/07/27 06:16:37;;;;;;;29.35;18.00;;;;;;;;;;4945327;28;20202;-74
2022/07/27 06:19:03;;;;;;;30.50;16.83;;;;;;;;;;4951692;28;20380;-75
2022/07/27 06:21:28;;;;;;;26.73;16.95;;;;;;;;;;4938556;28;20035;-76
2022/07/27 06:23:59;;;;;;;29.95;15.60;;;;;;;;;;4946229;28;20031;-76
2022/07/27 06:26:25;;;;;;;24.83;15.93;;;;;;;;;;4945145;28;20137;-76
2022/07/27 06:28:57;;;;;;;26.80;14.70;;;;;;;;;;4973535;28;20095;-76
2022/07/27 06:31:23;;;;;;;29.23;16.02;;;;;;;;;;4949124;28;20555;-76
2022/07/27 06:33:49;;;;;;;33.28;15.05;;;;;;;;;;4938867;28;20058;-75
2022/07/27 06:36:14;;;;;;;22.10;14.60;;;;;;;;;;4944158;28;20034;-76
2022/07/27 06:38:40;;;;;;;34.92;14.63;;;;;;;;;;4940909;28;20075;-75
2022/07/27 06:41:05;;;;;;;22.10;11.90;;;;;;;;;;4943212;28;20058;-75
2022/07/27 06:43:31;;;;;;;20.92;13.50;;;;;;;;;;4955797;28;20041;-77
2022/07/27 06:45:58;;;;;;;27.88;13.85;;;;;;;;;;4952005;28;20039;-77
2022/07/27 06:48:24;;;;;;;34.13;14.10;;;;;;;;;;4946104;28;20027;-75
2022/07/27 06:50:50;;;;;;;23.80;13.48;;;;;;;;;;4944387;28;20035;-75
2022/07/27 06:53:20;;;;;;;22.27;13.65;;;;;;;;;;4941604;28;20043;-77
2022/07/27 06:55:47;;;;;;;27.42;13.20;;;;;;;;;;4944703;28;20037;-77
2022/07/27 06:58:13;;;;;;;21.20;11.80;;;;;;;;;;4927502;29;20039;-75
2022/07/27 07:00:39;;;;;;;19.05;11.52;;;;;;;;;;4942515;28;20696;-76
2022/07/27 07:03:05;;;;;;;28.90;12.27;;;;;;;;;;4957431;28;20116;-75
2022/07/27 07:05:33;;;;;;;18.65;12.25;;;;;;;;;;4946282;28;20031;-76
2022/07/27 07:07:59;;;;;;;18.40;12.63;;;;;;;;;;4947196;28;20119;-76
2022/07/27 07:10:26;;;;;;;23.13;12.43;;;;;;;;;;4948313;28;20152;-74
2022/07/27 07:12:55;;;;;;;19.45;12.45;;;;;;;;;;4958718;28;20050;-76
2022/07/27 07:15:25;;;;;;;20.70;13.20;;;;;;;;;;4947108;28;20488;-76
2022/07/27 07:17:54;;;;;;;23.33;14.15;;;;;;;;;;4960477;28;20786;-76
2022/07/27 07:20:19;;;;;;;27.17;14.23;;;;;;;;;;4942720;28;20977;-76
2022/07/27 07:22:45;;;;;;;24.08;13.75;;;;;;;;;;4939747;28;20847;-77
2022/07/27 07:25:10;;;;;;;24.50;14.23;;;;;;;;;;4943600;29;20054;-75
2022/07/27 07:27:36;;;;;;;30.02;16.20;;;;;;;;;;4943918;28;20023;-76
2022/07/27 07:30:03;;;;;;;24.20;15.93;;;;;;;;;;4944973;28;20692;-76
2022/07/27 07:32:30;;;;;;;30.00;15.75;;;;;;;;;;4944707;28;20071;-75
2022/07/27 07:34:56;;;;;;;26.98;16.10;;;;;;;;;;4940209;28;20035;-75
2022/07/27 07:37:21;;;;;;;31.63;16.25;;;;;;;;;;4944808;28;20035;-76
2022/07/27 07:39:47;;;;;;;27.77;16.48;;;;;;;;;;4939929;28;20237;-76
2022/07/27 07:42:13;;;;;;;29.02;16.50;;;;;;;;;;4957920;28;20031;-75
2022/07/27 07:44:39;;;;;;;25.20;15.65;;;;;;;;;;4943407;28;20035;-76
2022/07/27 07:47:05;;;;;;;29.02;13.98;;;;;;;;;;4942870;29;20031;-75
2022/07/27 07:49:31;;;;;;;29.95;16.00;;;;;;;;;;4943026;28;20038;-77
2022/07/27 07:51:57;;;;;;;24.63;14.73;;;;;;;;;;4957526;28;20043;-76
2022/07/27 07:54:22;;;;;;;27.48;15.32;;;;;;;;;;4946196;28;20029;-76
2022/07/27 07:56:48;;;;;;;24.88;14.40;;;;;;;;;;4944464;28;20121;-76
2022/07/27 07:59:13;;;;;;;23.45;13.45;;;;;;;;;;4945649;28;20110;-77
2022/07/27 08:01:41;;;;;;;26.50;13.73;;;;;;;;;;4944805;28;20035;-77
2022/07/27 08:04:09;;;;;;;21.65;11.82;;;;;;;;;;4945624;28;20364;-77
2022/07/27 08:06:35;;;;;;;17.90;11.57;;;;;;;;;;4940366;28;20039;-76
2022/07/27 08:09:00;;;;;;;25.77;11.35;;;;;;;;;;4944562;28;20115;-77
2022/07/27 08:11:27;;;;;;;19.25;10.02;;;;;;;;;;4959439;28;20031;-75
2022/07/27 08:13:52;;;;;;;16.00;10.13;;;;;;;;;;4940506;28;20035;-77
2022/07/27 08:16:18;;;;;;;20.42;9.05;;;;;;;;;;4945092;28;20043;-76
2022/07/27 08:18:44;;;;;;;14.88;9.65;;;;;;;;;;4944488;28;20039;-76
2022/07/27 08:21:10;;;;;;;14.07;8.48;;;;;;;;;;4931912;28;20073;-75
2022/07/27 08:23:36;;;;;;;15.02;7.53;;;;;;;;;;4946358;28;20130;-75
2022/07/27 08:26:02;;;;;;;13.98;7.22;;;;;;;;;;4942751;28;20113;-76
2022/07/27 08:28:27;;;;;;;15.13;7.03;;;;;;;;;;4943223;28;20708;-76
2022/07/27 08:30:53;;;;;;;17.40;8.05;;;;;;;;;;4956625;28;20089;-75
2022/07/27 08:33:18;;;;;;;9.23;6.00;;;;;;;;;;4939415;28;20102;-76
2022/07/27 08:35:46;;;;;;;8.80;5.10;;;;;;;;;;4946375;28;20090;-75
2022/07/27 08:38:11;;;;;;;8.60;4.38;;;;;;;;;;4947428;29;20039;-77
2022/07/27 08:40:39;;;;;;;16.45;5.22;;;;;;;;;;4943598;29;20066;-75
2022/07/27 08:43:06;;;;;;;14.65;4.22;;;;;;;;;;4941535;28;20047;-76
2022/07/27 08:45:33;;;;;;;15.07;4.80;;;;;;;;;;4967734;28;20039;-75
2022/07/27 08:48:00;;;;;;;11.20;4.47;;;;;;;;;;4952888;28;20058;-78
2022/07/27 08:50:28;;;;;;;10.25;5.47;;;;;;;;;;4951461;29;20074;-73
2022/07/27 08:52:58;;;;;;;14.65;5.25;;;;;;;;;;4942054;28;20419;-76
2022/07/27 08:55:25;;;;;;;14.25;7.47;;;;;;;;;;4960499;28;20035;-76
2022/07/27 08:57:51;;;;;;;16.98;6.38;;;;;;;;;;4956604;28;20034;-74
2022/07/27 09:00:17;;;;;;;13.23;6.93;;;;;;;;;;4948688;28;20115;-75
2022/07/27 09:02:44;;;;;;;15.95;6.68;;;;;;;;;;4944443;28;20431;-76
2022/07/27 09:05:10;;;;;;;9.93;5.70;;;;;;;;;;4951082;28;20456;-75
2022/07/27 09:07:36;;;;;;;10.02;4.78;;;;;;;;;;4944557;28;20061;-75
2022/07/27 09:10:03;;;;;;;8.60;3.72;;;;;;;;;;4962845;28;20027;-74
2022/07/27 09:12:31;;;;;;;13.20;4.32;;;;;;;;;;4945230;29;20045;-76
2022/07/27 09:15:13;;;;;;;6.93;3.60;;;;;;;;;;4946552;29;20569;-74
2022/07/27 09:17:43;;;;;;;11.10;4.15;;;;;;;;;;4958002;28;20034;-76
2022/07/27 09:20:11;;;;;;;13.13;2.67;;;;;;;;;;4945122;28;20032;-74
2022/07/27 09:22:39;;;;;;;8.52;3.05;;;;;;;;;;4952978;28;20034;-75
2022/07/27 09:25:07;;;;;;;13.48;2.92;;;;;;;;;;4957369;28;20031;-74
2022/07/27 09:27:33;;;;;;;7.38;2.30;;;;;;;;;;4953106;28;20066;-75
2022/07/27 09:30:09;;;;;;;12.82;2.22;;;;;;;;;;4950064;28;20058;-74
2022/07/27 09:32:35;;;;;;;12.70;2.28;;;;;;;;;;4953801;28;20094;-75
2022/07/27 09:35:21;;;;;;;8.88;2.38;;;;;;;;;;4951031;28;20050;-76
2022/07/27 09:37:47;;;;;;;6.90;2.20;;;;;;;;;;4960306;28;20107;-77
2022/07/27 09:40:20;;;;;;;7.47;2.08;;;;;;;;;;4946816;28;20031;-75
2022/07/27 09:42:47;;;;;;;8.52;1.90;;;;;;;;;;4945051;28;20148;-74
2022/07/27 09:45:34;;;;;;;8.07;2.40;;;;;;;;;;4942844;28;20547;-75
2022/07/27 09:48:19;;;;;;;9.32;2.38;;;;;;;;;;4948005;28;20550;-76
2022/07/27 09:51:07;;;;;;;10.80;2.30;;;;;;;;;;4946487;28;20491;-76
2022/07/27 09:53:34;;;;;;;11.82;2.28;;;;;;;;;;4944770;28;20054;-75
2022/07/27 09:56:16;;;;;;;6.93;2.30;;;;;;;;;;4961035;28;20039;-74
2022/07/27 09:58:50;;;;;;;13.10;2.67;;;;;;;;;;4946787;28;20034;-77
2022/07/27 10:01:19;;;;;;;11.02;3.35;;;;;;;;;;4947804;29;20120;-73
2022/07/27 10:03:45;;;;;;;10.75;3.10;;;;;;;;;;4942532;28;20546;-74
2022/07/27 10:06:11;;;;;;;9.38;3.47;;;;;;;;;;4946020;29;20090;-75
2022/07/27 10:08:39;;;;;;;11.48;2.65;;;;;;;;;;4943949;28;20093;-75
2022/07/27 10:11:06;;;;;;;8.68;3.08;;;;;;;;;;4947476;29;20031;-76
2022/07/27 10:13:33;;;;;;;12.32;3.17;;;;;;;;;;4944319;28;20069;-76
2022/07/27 10:16:01;;;;;;;7.68;3.42;;;;;;;;;;4949602;28;20125;-74
2022/07/27 10:19:06;;;;;;;7.60;2.90;;;;;;;;;;4937566;28;20035;-74
2022/07/27 10:21:33;;;;;;;10.65;2.70;;;;;;;;;;4944001;28;20133;-74
2022/07/27 10:24:09;;;;;;;7.07;2.40;;;;;;;;;;4950083;28;20053;-75
2022/07/27 10:26:38;;;;;;;7.00;2.35;;;;;;;;;;4950696;28;20035;-74
2022/07/27 10:29:13;;;;;;;12.00;2.67;;;;;;;;;;4955308;28;20022;-75
2022/07/27 10:31:54;;;;;;;7.57;2.35;;;;;;;;;;4962557;28;20050;-75
2022/07/27 10:34:35;;;;;;;3.33;2.13;;;;;;;;;;4950594;28;20063;-75
2022/07/27 10:37:14;;;;;;;8.60;2.45;;;;;;;;;;4938735;29;20038;-74
2022/07/27 10:39:48;;;;;;;9.57;2.58;;;;;;;;;;4950981;29;20038;-74
2022/07/27 10:42:29;;;;;;;17.98;3.22;;;;;;;;;;4947991;28;20039;-75
2022/07/27 10:44:59;;;;;;;6.40;2.40;;;;;;;;;;4946918;28;20681;-76
2022/07/27 10:47:33;;;;;;;5.40;2.13;;;;;;;;;;4942704;28;20043;-74
2022/07/27 10:50:16;;;;;;;3.55;1.58;;;;;;;;;;4956303;28;20039;-74
2022/07/27 10:52:51;;;;;;;6.38;2.28;;;;;;;;;;4946350;28;20551;-74
2022/07/27 10:55:29;;;;;;;5.97;2.28;;;;;;;;;;4944381;28;20043;-74
2022/07/27 10:58:22;;;;;;;5.50;2.45;;;;;;;;;;4946135;29;20067;-74
2022/07/27 11:00:48;;;;;;;4.22;2.15;;;;;;;;;;4955840;28;20464;-74
2022/07/27 11:03:24;;;;;;;9.98;4.00;;;;;;;;;;4950056;28;20039;-74
2022/07/27 11:05:57;;;;;;;10.77;2.97;;;;;;;;;;4948030;28;20714;-75
2022/07/27 11:08:28;;;;;;;7.38;2.53;;;;;;;;;;4944974;28;20055;-75
2022/07/27 11:10:54;;;;;;;;;;;;;;;;;;4941882;28;20045;-73
2022/07/27 11:13:22;;;;;;;6.40;2.60;;;;;;;;;;4942712;28;19918;-76
2022/07/27 11:16:08;;;;;;;12.27;3.25;;;;;;;;;;4945263;28;20066;-76
2022/07/27 11:18:36;;;;;;;8.00;1.95;;;;;;;;;;4945369;28;20047;-76
2022/07/27 11:21:24;;;;;;;13.48;2.17;;;;;;;;;;4948712;28;20039;-74
2022/07/27 11:23:57;;;;;;;21.52;3.15;;;;;;;;;;4941728;28;20027;-75
2022/07/27 11:26:24;;;;;;;13.93;3.20;;;;;;;;;;4941115;28;20387;-74
2022/07/27 11:28:51;;;;;;;12.10;2.85;;;;;;;;;;4960505;28;20027;-74
2022/07/27 11:31:17;;;;;;;8.32;3.15;;;;;;;;;;4940184;28;20031;-74
2022/07/27 11:33:57;;;;;;;14.38;4.22;;;;;;;;;;4945427;28;20046;-75
2022/07/27 11:36:37;;;;;;;16.15;4.72;;;;;;;;;;4945193;28;20027;-74
2022/07/27 11:39:06;;;;;;;14.27;4.63;;;;;;;;;;4960289;28;20118;-75
2022/07/27 11:41:33;;;;;;;14.05;5.80;;;;;;;;;;4942524;28;20277;-75
2022/07/27 11:44:01;;;;;;;18.48;7.25;;;;;;;;;;4944128;28;20058;-75
2022/07/27 11:46:29;;;;;;;18.83;8.48;;;;;;;;;;4946796;28;20031;-76
2022/07/27 11:48:59;;;;;;;21.23;7.97;;;;;;;;;;4939478;28;20134;-73
2022/07/27 11:51:26;;;;;;;16.02;8.10;;;;;;;;;;4957294;28;20126;-74
2022/07/27 11:54:00;;;;;;;18.98;7.57;;;;;;;;;;4943387;28;20394;-75
2022/07/27 11:56:30;;;;;;;30.38;10.15;;;;;;;;;;4943349;28;20047;-73
2022/07/27 11:59:09;;;;;;;25.08;11.65;;;;;;;;;;4962073;28;20107;-75
2022/07/27 12:01:43;;;;;;;23.92;10.90;;;;;;;;;;4950794;28;20761;-75
2022/07/27 12:04:21;;;;;;;27.13;12.65;;;;;;;;;;4955476;28;20138;-75
2022/07/27 12:07:05;;;;;;;28.17;13.43;;;;;;;;;;4941117;28;20038;-77
2022/07/27 12:09:34;;;;;;;33.28;15.38;;;;;;;;;;4942514;28;20043;-75
2022/07/27 12:12:18;;;;;;;37.70;18.20;;;;;;;;;;4936777;28;20173;-74
2022/07/27 12:14:53;;;;;;;40.20;21.55;;;;;;;;;;4946519;28;20082;-76
2022/07/27 12:17:35;;;;;;;45.67;21.27;;;;;;;;;;4938402;28;20035;-75
2022/07/27 12:20:08;;;;;;;44.92;19.83;;;;;;;;;;4937255;28;20488;-74
2022/07/27 12:22:35;;;;;;;48.88;22.83;;;;;;;;;;4940043;28;20412;-77
2022/07/27 12:25:07;;;;;;;44.15;22.55;;;;;;;;;;4948120;28;20820;-75
2022/07/27 12:27:34;;;;;;;47.17;23.13;;;;;;;;;;4942936;28;20060;-76
2022/07/27 12:30:10;;;;;;;47.03;23.52;;;;;;;;;;4939340;28;20586;-75
2022/07/27 12:32:43;;;;;;;49.20;23.58;;;;;;;;;;4944291;28;20035;-75
2022/07/27 12:35:25;;;;;;;49.80;25.60;;;;;;;;;;4951060;28;20089;-74
2022/07/27 12:37:59;;;;;;;51.00;23.48;;;;;;;;;;4943609;28;20500;-74
2022/07/27 12:40:28;;;;;;;50.40;25.88;;;;;;;;;;4941425;28;20042;-75
2022/07/27 12:43:05;;;;;;;54.65;26.17;;;;;;;;;;4950062;28;20027;-76
2022/07/27 12:45:37;;;;;;;56.38;26.65;;;;;;;;;;4973251;28;20049;-75
2022/07/27 12:48:07;;;;;;;47.42;25.15;;;;;;;;;;4951646;28;20035;-74
2022/07/27 12:50:59;;;;;;;57.95;25.17;;;;;;;;;;4960682;28;20599;-74
2022/07/27 12:53:25;;;;;;;52.78;23.60;;;;;;;;;;4946428;28;20084;-75
2022/07/27 12:55:57;;;;;;;43.95;23.00;;;;;;;;;;4969201;28;20069;-75
2022/07/27 12:58:22;;;;;;;48.10;21.83;;;;;;;;;;4963932;28;20046;-74
2022/07/27 13:00:49;;;;;;;41.60;19.20;;;;;;;;;;4958195;28;20023;-73
2022/07/27 13:03:15;;;;;;;38.65;18.80;;;;;;;;;;4954842;28;20488;-75
2022/07/27 13:05:41;;;;;;;35.17;17.50;;;;;;;;;;4964466;28;20034;-77
2022/07/27 13:08:09;;;;;;;35.47;13.90;;;;;;;;;;4951129;28;20039;-75
2022/07/27 13:10:35;;;;;;;23.60;11.82;;;;;;;;;;4967640;28;20035;-76
2022/07/27 13:13:02;;;;;;;27.20;11.43;;;;;;;;;;4950072;28;20027;-75
2022/07/27 13:15:28;;;;;;;26.60;12.15;;;;;;;;;;4947155;28;20122;-75
2022/07/27 13:17:53;;;;;;;44.70;16.75;;;;;;;;;;4947123;28;20158;-74
2022/07/27 13:20:19;;;;;;;23.60;11.63;;;;;;;;;;4967038;28;20039;-76
2022/07/27 13:22:46;;;;;;;25.67;11.98;;;;;;;;;;4952619;28;20382;-75
2022/07/27 13:25:12;;;;;;;33.47;14.75;;;;;;;;;;4952713;28;20027;-78
2022/07/27 13:27:39;;;;;;;29.63;13.57;;;;;;;;;;4946459;28;20387;-74
2022/07/27 13:30:08;;;;;;;37.60;15.85;;;;;;;;;;4961242;28;20119;-75
2022/07/27 13:32:34;;;;;;;30.90;16.40;;;;;;;;;;4933679;28;20027;-75
2022/07/27 13:35:00;;;;;;;32.90;17.55;;;;;;;;;;4929195;28;20038;-75
2022/07/27 13:37:26;;;;;;;39.28;17.08;;;;;;;;;;4975780;28;20030;-75
2022/07/27 13:39:53;;;;;;;36.15;16.80;;;;;;;;;;4951476;28;20046;-74
2022/07/27 13:42:20;;;;;;;33.45;16.02;;;;;;;;;;4959851;28;20035;-74
2022/07/27 13:44:46;;;;;;;28.40;14.55;;;;;;;;;;4957731;28;20159;-74
2022/07/27 13:47:12;;;;;;;30.35;15.13;;;;;;;;;;4965045;28;20037;-76
2022/07/27 13:49:37;;;;;;;35.22;15.48;;;;;;;;;;4961261;28;20023;-75
2022/07/27 13:52:04;;;;;;;35.05;16.13;;;;;;;;;;4967915;28;20031;-74
2022/07/27 13:54:29;;;;;;;35.95;16.38;;;;;;;;;;4952976;28;20364;-73
2022/07/27 13:56:55;;;;;;;25.90;12.82;;;;;;;;;;4952559;29;20452;-76
2022/07/27 13:59:21;;;;;;;27.55;12.93;;;;;;;;;;4951764;28;20043;-76
2022/07/27 14:01:51;;;;;;;32.60;12.65;;;;;;;;;;4949884;28;20498;-75
2022/07/27 14:04:18;;;;;;;28.83;13.15;;;;;;;;;;4949395;28;20114;-75
2022/07/27 14:06:45;;;;;;;28.33;14.07;;;;;;;;;;4947508;28;20126;-75
2022/07/27 14:09:11;;;;;;;35.80;15.27;;;;;;;;;;4948331;28;20055;-75
2022/07/27 14:11:40;;;;;;;30.52;14.68;;;;;;;;;;4951355;29;20470;-76
2022/07/27 14:14:06;;;;;;;35.88;14.30;;;;;;;;;;4972400;28;20104;-75
2022/07/27 14:16:31;;;;;;;32.03;15.55;;;;;;;;;;4953037;29;20030;-75
2022/07/27 14:18:57;;;;;;;30.73;13.40;;;;;;;;;;4968558;28;20104;-76
2022/07/27 14:21:24;;;;;;;25.80;12.63;;;;;;;;;;4948390;28;20090;-75
2022/07/27 14:23:49;;;;;;;25.80;12.35;;;;;;;;;;4948800;29;20110;-78
2022/07/27 14:26:15;;;;;;;30.10;12.50;;;;;;;;;;4949055;29;20448;-76
2022/07/27 14:28:41;;;;;;;33.85;13.77;;;;;;;;;;4948661;28;20385;-75
2022/07/27 14:31:09;;;;;;;34.05;17.05;;;;;;;;;;4950859;28;20027;-76
2022/07/27 14:33:36;;;;;;;33.92;14.93;;;;;;;;;;4962965;28;20033;-76
2022/07/27 14:36:03;;;;;;;40.45;16.27;;;;;;;;;;4949970;28;20058;-75